Time;durP1;ratioP1;P1;durP2;ratioP2;P2;SDS_P1;SDS_P2;PMS_P1;PMS_P2;Temp;Humidity;BMP_temperature;BMP_pressure;BME280_temperature;BME280_humidity;BME280_pressure;Samples;Min_cycle;Max_cycle;Signal;HPM_P1;HPM_P2
2021/08/24 00:00:09;;;;;;;0.20;0.20;;;;;;;12.53;81.12;100043.75;4938598;29;20153;-87
2021/08/24 00:02:38;;;;;;;0.20;0.20;;;;;;;12.54;81.11;100042.75;4889119;29;20088;-85
2021/08/24 00:05:05;;;;;;;0.20;0.20;;;;;;;12.52;80.97;100050.19;4930466;29;20178;-83
2021/08/24 00:07:31;;;;;;;0.20;0.20;;;;;;;12.48;81.28;100054.22;4928922;29;20108;-86
2021/08/24 00:09:58;;;;;;;0.20;0.20;;;;;;;12.42;81.52;100049.41;4924239;29;20051;-84
2021/08/24 00:12:23;;;;;;;0.30;0.30;;;;;;;12.39;81.12;100049.72;4921716;29;20036;-85
2021/08/24 00:14:49;;;;;;;0.20;0.20;;;;;;;12.38;81.60;100048.00;4911121;29;20044;-86
2021/08/24 00:17:15;;;;;;;0.20;0.20;;;;;;;12.36;81.50;100050.00;4929018;29;20107;-85
2021/08/24 00:19:41;;;;;;;0.20;0.20;;;;;;;12.33;81.64;100048.47;4927032;29;20047;-84
2021/08/24 00:22:07;;;;;;;0.30;0.30;;;;;;;12.29;81.18;100053.34;4931131;29;20032;-83
2021/08/24 00:24:33;;;;;;;0.20;0.20;;;;;;;12.27;81.35;100063.47;4934992;29;20055;-85
2021/08/24 00:26:58;;;;;;;0.20;0.20;;;;;;;12.26;81.08;100064.50;4928145;29;20068;-86
2021/08/24 00:29:24;;;;;;;0.20;0.20;;;;;;;12.25;81.37;100064.66;4898489;29;20074;-85
2021/08/24 00:31:51;;;;;;;0.20;0.20;;;;;;;12.19;81.63;100059.84;4921100;29;20099;-82
2021/08/24 00:34:17;;;;;;;0.20;0.20;;;;;;;12.15;81.85;100051.16;4901767;29;20094;-86
2021/08/24 00:36:42;;;;;;;0.20;0.20;;;;;;;12.13;81.89;100061.28;4932864;29;20167;-84
2021/08/24 00:39:08;;;;;;;0.20;0.20;;;;;;;12.04;82.02;100057.63;4925818;29;20075;-84
2021/08/24 00:41:37;;;;;;;0.20;0.20;;;;;;;12.01;82.25;100057.94;4923353;29;20081;-85
2021/08/24 00:44:07;;;;;;;0.20;0.20;;;;;;;11.96;82.21;100062.09;4909062;29;20056;-86
2021/08/24 00:46:44;;;;;;;0.20;0.20;;;;;;;11.97;82.23;100058.38;4906679;29;20040;-85
2021/08/24 00:49:24;;;;;;;0.20;0.20;;;;;;;11.93;82.36;100048.84;4919764;29;20051;-85
2021/08/24 00:52:06;;;;;;;0.20;0.20;;;;;;;11.94;82.42;100050.56;4931850;29;20081;-86
2021/08/24 00:54:31;;;;;;;0.20;0.20;;;;;;;11.95;82.22;100053.09;4914465;29;20063;-85
2021/08/24 00:57:02;;;;;;;0.20;0.20;;;;;;;11.96;82.42;100051.28;4921133;29;20043;-83
2021/08/24 00:59:29;;;;;;;0.20;0.20;;;;;;;11.93;82.31;100051.56;4928830;29;20040;-82
2021/08/24 01:01:54;;;;;;;0.20;0.20;;;;;;;11.90;82.35;100052.72;4943521;29;20088;-84
2021/08/24 01:04:22;;;;;;;0.20;0.20;;;;;;;11.93;82.61;100059.69;4925108;29;20130;-84
2021/08/24 01:06:54;;;;;;;0.20;0.20;;;;;;;11.91;82.72;100058.97;4916452;29;20174;-83
2021/08/24 01:10:02;;;;;;;0.20;0.20;;;;;;;11.98;82.42;100051.94;4926016;29;20040;-84
2021/08/24 01:12:46;;;;;;;0.20;0.20;;;;;;;12.02;82.19;100048.78;4910161;29;20060;-86
2021/08/24 01:15:43;;;;;;;0.20;0.20;;;;;;;12.13;81.64;100053.16;4931258;29;20051;-83
2021/08/24 01:18:29;;;;;;;0.20;0.20;;;;;;;12.18;81.18;100059.00;4928931;29;20052;-84
2021/08/24 01:21:17;;;;;;;0.20;0.20;;;;;;;12.04;82.04;100056.78;4917593;29;20044;-83
2021/08/24 01:23:57;;;;;;;0.20;0.20;;;;;;;11.96;82.17;100053.97;4908442;29;20402;-83
2021/08/24 01:26:26;;;;;;;0.20;0.20;;;;;;;12.03;81.95;100055.09;4928970;29;20043;-83
2021/08/24 01:29:01;;;;;;;0.20;0.20;;;;;;;12.09;81.53;100059.88;4934277;29;20150;-83
2021/08/24 01:32:07;;;;;;;0.20;0.20;;;;;;;12.11;81.74;100055.19;4932766;29;20043;-82
2021/08/24 01:34:39;;;;;;;0.20;0.20;;;;;;;12.04;81.95;100062.19;4927634;29;20094;-84
2021/08/24 01:37:30;;;;;;;0.20;0.20;;;;;;;11.99;82.09;100069.91;4918078;29;20044;-85
2021/08/24 01:40:05;;;;;;;0.20;0.20;;;;;;;11.99;82.09;100059.06;4919594;29;20483;-84
2021/08/24 01:42:31;;;;;;;0.28;0.28;;;;;;;12.11;81.54;100047.03;4902655;29;20044;-84
2021/08/24 01:45:14;;;;;;;0.20;0.20;;;;;;;12.22;81.00;100037.84;4939965;29;20063;-84
2021/08/24 01:48:04;;;;;;;0.20;0.20;;;;;;;12.24;81.19;100039.38;4918768;29;20514;-84
2021/08/24 01:50:40;;;;;;;0.20;0.20;;;;;;;12.28;81.24;100043.50;4920421;29;20048;-85
2021/08/24 01:53:09;;;;;;;0.20;0.20;;;;;;;12.35;80.80;100042.88;4924623;29;20042;-83
2021/08/24 01:55:43;;;;;;;0.20;0.20;;;;;;;12.35;81.17;100042.88;4892284;29;20506;-85
2021/08/24 01:58:13;;;;;;;0.20;0.20;;;;;;;12.18;81.90;100042.72;4906987;29;20044;-86
2021/08/24 02:00:42;;;;;;;0.20;0.20;;;;;;;12.07;82.30;100046.50;4930814;29;20115;-85
2021/08/24 02:03:10;;;;;;;0.20;0.20;;;;;;;11.96;82.29;100045.84;4930451;29;20053;-84
2021/08/24 02:05:49;;;;;;;0.20;0.20;;;;;;;11.83;82.82;100036.19;4917123;29;20037;-84
2021/08/24 02:08:19;;;;;;;0.20;0.20;;;;;;;11.75;83.21;100041.47;4916340;29;20080;-84
2021/08/24 02:10:46;;;;;;;0.20;0.20;;;;;;;11.72;83.40;100036.34;4918697;29;20051;-83
2021/08/24 02:13:15;;;;;;;0.20;0.20;;;;;;;11.74;83.24;100034.38;4914210;29;20040;-82
2021/08/24 02:15:47;;;;;;;0.20;0.20;;;;;;;11.75;83.41;100036.06;4926794;29;20108;-83
2021/08/24 02:18:17;;;;;;;0.20;0.20;;;;;;;11.74;83.22;100034.38;4928464;29;20046;-84
2021/08/24 02:20:47;;;;;;;0.20;0.20;;;;;;;11.77;83.21;100034.06;4902366;29;20052;-84
2021/08/24 02:23:18;;;;;;;0.20;0.20;;;;;;;11.70;82.99;100032.97;4925406;29;20032;-84
2021/08/24 02:25:46;;;;;;;0.20;0.20;;;;;;;11.77;82.88;100034.06;4906044;29;20047;-84
2021/08/24 02:28:18;;;;;;;0.28;0.28;;;;;;;11.81;82.64;100030.06;4918894;29;20040;-84
2021/08/24 02:31:29;;;;;;;0.20;0.20;;;;;;;11.95;82.57;100041.41;4881103;29;20051;-86
2021/08/24 02:34:29;;;;;;;0.38;0.38;;;;;;;11.94;82.43;100034.28;4925140;29;20052;-85
2021/08/24 02:37:10;;;;;;;0.30;0.30;;;;;;;12.01;82.27;100047.09;4918495;29;20049;-83
2021/08/24 02:40:21;;;;;;;0.20;0.20;;;;;;;12.07;82.09;100053.78;4920821;29;20044;-85
2021/08/24 02:43:02;;;;;;;0.25;0.25;;;;;;;12.14;81.89;100051.28;4895249;29;20073;-83
2021/08/24 02:45:33;;;;;;;0.30;0.30;;;;;;;12.23;81.14;100062.09;4920553;29;20031;-84
2021/08/24 02:48:01;;;;;;;0.30;0.30;;;;;;;12.43;80.73;100051.09;4916618;29;20048;-83
2021/08/24 02:50:27;;;;;;;0.20;0.20;;;;;;;12.61;80.11;100056.53;4926577;29;20043;-86
2021/08/24 02:52:54;;;;;;;0.20;0.20;;;;;;;12.56;80.50;100065.16;4926144;29;20393;-84
2021/08/24 02:55:21;;;;;;;0.20;0.20;;;;;;;12.43;80.76;100060.13;4906751;29;20048;-86
2021/08/24 02:57:47;;;;;;;0.20;0.20;;;;;;;12.60;80.74;100069.25;4927842;29;20048;-85
2021/08/24 03:00:15;;;;;;;0.20;0.20;;;;;;;12.78;80.39;100059.25;4932169;29;20051;-85
2021/08/24 03:02:41;;;;;;;0.30;0.20;;;;;;;13.00;79.29;100054.38;4928233;29;20045;-85
2021/08/24 03:05:08;;;;;;;0.20;0.20;;;;;;;13.10;78.81;100059.72;4927076;29;20052;-84
2021/08/24 03:07:36;;;;;;;0.20;0.20;;;;;;;13.06;78.67;100063.75;4931125;29;20067;-85
2021/08/24 03:10:06;;;;;;;0.20;0.20;;;;;;;13.03;79.40;100065.75;4918678;29;20055;-85
2021/08/24 03:12:45;;;;;;;0.20;0.20;;;;;;;13.02;79.27;100071.38;4923685;29;20043;-84
2021/08/24 03:15:18;;;;;;;0.20;0.20;;;;;;;13.07;78.87;100071.72;4919911;29;20080;-84
2021/08/24 03:18:00;;;;;;;0.20;0.20;;;;;;;13.01;79.56;100073.19;4932681;29;20040;-85
2021/08/24 03:20:36;;;;;;;0.20;0.20;;;;;;;13.13;79.39;100064.84;4930782;29;20162;-85
2021/08/24 03:23:04;;;;;;;0.20;0.20;;;;;;;13.13;78.71;100065.69;4930738;29;20111;-86
2021/08/24 03:25:30;;;;;;;0.20;0.20;;;;;;;13.23;78.20;100071.00;4911842;29;20107;-87
2021/08/24 03:27:56;;;;;;;0.20;0.20;;;;;;;13.30;77.86;100071.25;4921756;29;20048;-84
2021/08/24 03:30:22;;;;;;;0.20;0.20;;;;;;;13.38;77.43;100066.75;4913372;29;20525;-85
2021/08/24 03:32:49;;;;;;;0.20;0.20;;;;;;;13.39;77.29;100070.31;4908369;29;20079;-83
2021/08/24 03:35:16;;;;;;;0.20;0.20;;;;;;;13.38;77.73;100069.47;4920817;29;20570;-87
2021/08/24 03:37:43;;;;;;;0.20;0.20;;;;;;;13.27;77.92;100078.72;4927258;29;20075;-85
2021/08/24 03:40:10;;;;;;;0.22;0.22;;;;;;;13.11;78.85;100083.97;4906631;29;20056;-83
2021/08/24 03:42:37;;;;;;;0.20;0.20;;;;;;;12.84;79.30;100081.38;4935375;29;20043;-86
2021/08/24 03:45:06;;;;;;;0.20;0.20;;;;;;;12.74;79.51;100082.28;4924647;29;20035;-84
2021/08/24 03:47:32;;;;;;;0.20;0.20;;;;;;;12.74;79.40;100093.13;4922301;29;20083;-85
2021/08/24 03:49:57;;;;;;;0.20;0.20;;;;;;;12.79;79.46;100089.97;4924792;29;20032;-84
2021/08/24 03:52:24;;;;;;;0.20;0.20;;;;;;;12.86;79.40;100092.91;4939293;29;20556;-88
2021/08/24 03:54:50;;;;;;;0.20;0.20;;;;;;;12.95;78.92;100089.28;4929044;29;20086;-86
2021/08/24 03:57:16;;;;;;;0.20;0.20;;;;;;;13.13;78.15;100091.97;4878337;29;20039;-86
2021/08/24 03:59:41;;;;;;;0.22;0.22;;;;;;;13.07;78.40;100090.72;4932911;29;20044;-87
2021/08/24 04:02:07;;;;;;;0.20;0.20;;;;;;;13.11;78.37;100089.41;4925553;29;20077;-86
2021/08/24 04:04:35;;;;;;;0.30;0.30;;;;;;;13.17;78.10;100083.34;4931523;29;20040;-85
2021/08/24 04:07:01;;;;;;;0.20;0.20;;;;;;;13.08;78.31;100089.72;4914445;29;20130;-85
2021/08/24 04:09:27;;;;;;;0.30;0.30;;;;;;;13.11;78.36;100080.41;4935365;29;20050;-85
2021/08/24 04:11:53;;;;;;;0.22;0.22;;;;;;;13.11;78.57;100086.69;4921606;29;20047;-84
2021/08/24 04:14:19;;;;;;;0.20;0.20;;;;;;;13.15;78.25;100090.78;4926481;29;20409;-85
2021/08/24 04:16:46;;;;;;;0.30;0.30;;;;;;;13.10;78.76;100082.28;4940671;29;20084;-84
2021/08/24 04:19:12;;;;;;;0.20;0.20;;;;;;;13.17;78.85;100094.22;4925014;29;20044;-85
2021/08/24 04:21:40;;;;;;;0.20;0.20;;;;;;;13.20;78.70;100088.47;4915658;29;20430;-86
2021/08/24 04:24:07;;;;;;;0.20;0.20;;;;;;;13.32;78.16;100090.97;4929327;29;20057;-84
2021/08/24 04:26:34;;;;;;;0.20;0.20;;;;;;;13.40;78.21;100093.75;4925496;29;20111;-83
2021/08/24 04:29:01;;;;;;;0.30;0.30;;;;;;;13.56;77.49;100088.41;4925518;29;20120;-86
2021/08/24 04:31:30;;;;;;;0.30;0.20;;;;;;;13.64;77.25;100080.34;4943021;29;20522;-85
2021/08/24 04:33:57;;;;;;;0.30;0.30;;;;;;;13.73;76.96;100084.78;4924980;29;20040;-85
2021/08/24 04:36:23;;;;;;;0.30;0.30;;;;;;;13.82;77.01;100082.09;4935567;29;20075;-85
2021/08/24 04:38:50;;;;;;;0.20;0.20;;;;;;;13.70;76.82;100085.09;4927632;29;20035;-86
2021/08/24 04:41:16;;;;;;;0.30;0.30;;;;;;;13.58;77.70;100085.56;4941478;29;20067;-86
2021/08/24 04:43:43;;;;;;;0.28;0.28;;;;;;;13.53;77.80;100091.47;4909900;29;20222;-85
2021/08/24 04:46:09;;;;;;;0.30;0.30;;;;;;;13.55;77.82;100084.00;4903362;29;20036;-84
2021/08/24 04:48:35;;;;;;;0.20;0.20;;;;;;;13.51;78.00;100096.19;4939220;29;20055;-84
2021/08/24 04:51:02;;;;;;;0.30;0.30;;;;;;;13.65;77.98;100086.63;4922672;29;20079;-85
2021/08/24 04:53:29;;;;;;;0.28;0.28;;;;;;;13.66;77.91;100089.16;4927029;29;20048;-85
2021/08/24 04:55:57;;;;;;;0.20;0.20;;;;;;;13.84;77.41;100085.53;4943278;29;20503;-87
2021/08/24 04:58:23;;;;;;;0.30;0.30;;;;;;;13.91;76.79;100089.31;4926026;29;20044;-85
2021/08/24 05:00:51;;;;;;;0.20;0.20;;;;;;;14.15;76.09;100089.44;4934275;29;20067;-87
2021/08/24 05:03:18;;;;;;;0.30;0.30;;;;;;;14.17;75.94;100084.66;4939986;29;20040;-86
2021/08/24 05:05:44;;;;;;;0.30;0.30;;;;;;;14.34;75.53;100091.03;4923376;29;20055;-85
2021/08/24 05:08:12;;;;;;;0.20;0.20;;;;;;;14.42;75.16;100084.75;4935067;29;20039;-86
2021/08/24 05:10:39;;;;;;;0.22;0.22;;;;;;;14.55;74.90;100085.16;4909505;29;20417;-86
2021/08/24 05:13:05;;;;;;;0.20;0.20;;;;;;;14.66;74.93;100076.69;4930094;29;20063;-85
2021/08/24 05:15:32;;;;;;;0.40;0.40;;;;;;;14.81;74.14;100079.63;4941876;28;20051;-87
2021/08/24 05:18:00;;;;;;;0.28;0.28;;;;;;;15.03;73.57;100086.28;4924520;29;20133;-86
2021/08/24 05:20:27;;;;;;;0.20;0.20;;;;;;;15.19;72.51;100088.97;4944997;29;20159;-86
2021/08/24 05:23:05;;;;;;;0.38;0.28;;;;;;;15.39;72.76;100080.44;5333968;23;20204;31
2021/08/24 05:25:31;;;;;;;0.28;0.28;;;;;;;15.55;71.98;100077.72;4956607;23;20192;-85
2021/08/24 05:27:58;;;;;;;0.20;0.20;;;;;;;15.78;71.27;100079.75;4974355;23;20107;-85
2021/08/24 05:30:26;;;;;;;0.60;0.60;;;;;;;16.55;69.09;100080.78;4922897;29;20090;-85
2021/08/24 05:32:55;;;;;;;0.70;0.70;;;;;;;17.64;65.35;100075.19;4891540;29;20104;-86
2021/08/24 05:35:23;;;;;;;0.70;0.70;;;;;;;18.54;62.06;100067.63;5015452;23;20060;-85
2021/08/24 05:37:52;;;;;;;0.70;0.70;;;;;;;19.49;58.67;100065.63;4928625;29;20040;-85
2021/08/24 05:40:19;;;;;;;0.60;0.60;;;;;;;20.03;56.71;100070.41;5076226;23;20041;-84
2021/08/24 05:42:45;;;;;;;0.60;0.60;;;;;;;20.61;55.80;100072.81;5028881;23;20063;-84
2021/08/24 05:45:14;;;;;;;0.60;0.60;;;;;;;21.10;53.26;100074.44;5225201;23;20064;-85
2021/08/24 05:47:42;;;;;;;0.60;0.60;;;;;;;21.74;51.21;100071.06;5073137;23;20024;-86
2021/08/24 05:53:07;;;;;;;0.60;0.60;;;;;;;22.45;49.24;100066.66;4894040;29;20030;-85
2021/08/24 05:55:33;;;;;;;0.60;0.60;;;;;;;22.73;47.89;100064.41;4876009;29;20105;-84
2021/08/24 05:58:01;;;;;;;0.70;0.70;;;;;;;23.13;45.96;100072.47;4899236;29;20112;-85
2021/08/24 06:00:29;;;;;;;0.60;0.60;;;;;;;22.75;45.33;100062.28;4906901;29;20164;-86
2021/08/24 06:02:55;;;;;;;0.60;0.60;;;;;;;23.31;44.05;100055.13;4872999;29;20025;-83
2021/08/24 06:05:22;;;;;;;0.70;0.70;;;;;;;23.47;44.59;100064.75;4877049;29;20045;-85
2021/08/24 06:07:50;;;;;;;0.70;0.70;;;;;;;24.14;42.14;100054.78;5055012;23;20019;-85
2021/08/24 06:10:18;;;;;;;0.60;0.60;;;;;;;24.69;41.19;100057.53;4894044;29;20057;-85
2021/08/24 06:12:45;;;;;;;0.70;0.70;;;;;;;24.98;39.18;100055.81;5060777;23;20329;-85
2021/08/24 06:15:14;;;;;;;0.60;0.60;;;;;;;25.47;38.25;100064.00;4922131;29;20044;-85
2021/08/24 06:17:46;;;;;;;0.70;0.70;;;;;;;25.44;36.68;100070.88;5082830;23;20044;-85
2021/08/24 06:20:12;;;;;;;0.63;0.63;;;;;;;25.47;38.05;100064.00;4881368;29;20064;-82
2021/08/24 06:22:40;;;;;;;0.70;0.70;;;;;;;25.81;37.62;100065.13;4915904;29;20045;-86
2021/08/24 06:25:08;;;;;;;0.70;0.70;;;;;;;26.05;37.63;100059.59;4900272;29;20080;-87
2021/08/24 06:27:36;;;;;;;0.77;0.77;;;;;;;26.58;36.25;100059.38;4902804;29;20025;-87
2021/08/24 06:30:09;;;;;;;0.70;0.70;;;;;;;27.06;35.92;100065.53;4916475;29;20064;-88
2021/08/24 06:32:46;;;;;;;0.73;0.73;;;;;;;27.31;35.38;100065.19;4939386;23;20139;-85
2021/08/24 06:35:13;;;;;;;0.70;0.70;;;;;;;27.26;35.96;100071.50;4895401;29;20040;-84
2021/08/24 06:37:40;;;;;;;0.80;0.80;;;;;;;26.77;35.37;100065.59;4934447;29;20125;-84
2021/08/24 06:40:09;;;;;;;0.70;0.70;;;;;;;27.39;34.69;100067.59;4953006;28;20051;-88
2021/08/24 06:42:48;;;;;;;0.80;0.80;;;;;;;28.00;33.70;100067.72;4900933;29;20051;-86
2021/08/24 06:45:27;;;;;;;0.77;0.77;;;;;;;28.19;32.51;100074.66;4916510;29;20048;-82
2021/08/24 06:47:54;;;;;;;0.80;0.80;;;;;;;28.19;32.57;100077.44;4923755;29;20171;-86
2021/08/24 06:50:23;;;;;;;0.90;0.90;;;;;;;27.15;32.64;100066.88;4927210;29;20383;-88
2021/08/24 06:52:49;;;;;;;0.80;0.80;;;;;;;26.73;34.08;100074.63;4920855;29;20040;-85
2021/08/24 06:55:19;;;;;;;0.93;0.80;;;;;;;27.22;33.56;100075.88;4920121;29;20064;-85
2021/08/24 06:57:46;;;;;;;0.90;0.90;;;;;;;27.97;32.33;100073.78;4957674;23;20128;-85
2021/08/24 07:00:20;;;;;;;0.80;0.80;;;;;;;28.46;31.11;100072.00;4875363;29;20056;-86
2021/08/24 07:02:48;;;;;;;0.80;0.80;;;;;;;29.18;31.88;100075.59;4893876;29;20049;-84
2021/08/24 07:05:18;;;;;;;0.90;0.90;;;;;;;27.50;32.89;100076.94;4897364;29;20053;-86
2021/08/24 07:07:46;;;;;;;0.90;0.90;;;;;;;26.40;33.05;100074.25;4904041;29;20043;-86
2021/08/24 07:10:14;;;;;;;0.90;0.90;;;;;;;26.65;33.50;100073.94;4878700;29;20089;-84
2021/08/24 07:12:42;;;;;;;0.93;0.93;;;;;;;28.31;32.12;100072.63;4903880;29;20119;-84
2021/08/24 07:15:11;;;;;;;1.00;1.00;;;;;;;28.92;29.90;100078.09;4911473;29;20036;-84
2021/08/24 07:17:37;;;;;;;0.90;0.90;;;;;;;29.71;29.02;100082.22;4895399;29;20059;-82
2021/08/24 07:20:07;;;;;;;1.00;1.00;;;;;;;30.40;27.67;100082.13;4879326;29;20071;-83
2021/08/24 07:22:33;;;;;;;0.90;0.90;;;;;;;31.05;27.57;100087.41;4912489;29;20036;-84
2021/08/24 07:25:05;;;;;;;1.00;1.00;;;;;;;30.70;27.34;100086.16;4899629;29;20125;-87
2021/08/24 07:27:31;;;;;;;0.90;0.90;;;;;;;29.71;27.10;100079.44;4917847;29;20032;-83
2021/08/24 07:29:58;;;;;;;0.90;0.90;;;;;;;30.18;27.62;100073.09;4911524;29;20037;-85
2021/08/24 07:32:25;;;;;;;1.00;1.00;;;;;;;28.24;29.37;100082.25;4906797;29;20114;-84
2021/08/24 07:34:51;;;;;;;0.17;0.17;;;;;;;27.24;30.34;100075.63;4911220;29;20040;-85
2021/08/24 07:37:17;;;;;;;1.15;1.15;;;;;;;28.22;30.18;100073.31;4911412;29;20047;-86
2021/08/24 07:39:44;;;;;;;1.00;1.00;;;;;;;28.14;30.23;100082.94;4899258;29;20024;-85
2021/08/24 07:42:11;;;;;;;1.00;1.00;;;;;;;27.80;30.15;100076.59;4906724;29;20033;-83
2021/08/24 07:44:37;;;;;;;0.20;0.20;;;;;;;26.31;30.60;100074.84;4915686;29;20052;-84
2021/08/24 07:47:06;;;;;;;1.10;1.10;;;;;;;28.19;29.26;100079.38;4911763;29;20053;-86
2021/08/24 07:49:36;;;;;;;1.10;1.10;;;;;;;28.33;29.09;100070.41;4880180;29;20551;-84
2021/08/24 07:52:07;;;;;;;1.00;1.00;;;;;;;27.03;30.82;100071.63;4895777;29;20056;-86
2021/08/24 07:54:34;;;;;;;1.10;1.10;;;;;;;28.71;29.52;100067.84;4918494;29;20056;-86
2021/08/24 07:57:05;;;;;;;0.13;0.13;;;;;;;28.41;28.36;100066.38;4917307;29;20052;-85
2021/08/24 07:59:34;;;;;;;1.30;1.30;;;;;;;30.38;25.79;100073.19;4887506;29;20049;-86
2021/08/24 08:04:54;;;;;;;0.10;0.10;;;;;;;30.64;23.89;100070.50;5260022;23;20076;-85
2021/08/24 08:07:22;;;;;;;1.20;1.20;;;;;;;31.39;22.72;100071.84;5274210;23;20062;-87
2021/08/24 08:09:56;;;;;;;0.10;0.10;;;;;;;30.90;23.75;100074.25;4937197;29;20052;-86
2021/08/24 08:12:23;;;;;;;0.10;0.10;;;;;;;26.99;28.43;100070.44;4923120;29;20047;-86
2021/08/24 08:14:51;;;;;;;0.10;0.10;;;;;;;25.16;30.92;100074.31;5255147;23;20075;-84
2021/08/24 08:17:18;;;;;;;0.20;0.20;;;;;;;25.57;30.45;100064.28;5007382;23;20166;-85
2021/08/24 08:20:04;;;;;;;0.20;0.20;;;;;;;25.84;30.53;100059.13;5196946;23;20048;-84
2021/08/24 08:22:36;;;;;;;0.20;0.20;;;;;;;24.66;32.89;100052.44;5358119;23;20066;-85
2021/08/24 08:25:06;;;;;;;1.40;1.40;;;;;;;25.34;31.57;100065.09;4993390;23;20147;-86
2021/08/24 08:27:52;;;;;;;1.30;1.30;;;;;;;26.60;29.42;100048.88;4904124;29;20056;-86
2021/08/24 08:30:30;;;;;;;1.30;1.30;;;;;;;27.02;28.86;100048.59;5006232;23;20121;-87
2021/08/24 08:33:06;;;;;;;1.20;1.20;;;;;;;28.76;27.20;100043.69;4964211;23;20043;-87
2021/08/24 08:35:41;;;;;;;1.20;1.20;;;;;;;29.62;24.91;100055.94;4963228;23;20043;-88
2021/08/24 08:38:16;;;;;;;1.20;1.20;;;;;;;29.18;25.09;100042.16;5265215;23;20096;31
2021/08/24 08:40:58;;;;;;;1.30;1.30;;;;;;;28.67;26.13;100042.50;4878847;29;20045;-84
2021/08/24 08:43:43;;;;;;;1.30;1.30;;;;;;;31.72;23.86;100036.03;4862019;29;20054;-86
2021/08/24 08:46:40;;;;;;;1.20;1.20;;;;;;;33.13;20.49;100044.19;4920580;28;20052;-87
2021/08/24 08:49:11;;;;;;;1.20;1.20;;;;;;;31.45;21.62;100041.94;5493512;23;20779;-82
2021/08/24 08:51:50;;;;;;;0.30;0.30;;;;;;;31.59;21.18;100036.59;4934134;29;20136;-87
2021/08/24 08:54:20;;;;;;;1.10;1.10;;;;;;;32.51;20.62;100042.03;5408938;23;20037;-87
2021/08/24 08:59:55;;;;;;;1.20;1.20;;;;;;;31.70;19.23;100038.25;5790449;23;20060;-85
2021/08/24 09:02:44;;;;;;;;;;;;;;;;;;;;;
2021/08/24 09:05:39;;;;;;;0.20;0.20;;;;;;;26.63;25.18;100017.88;5880428;23;20027;-83
2021/08/24 09:11:10;;;;;;;1.05;1.05;;;;;;;29.03;23.84;100040.09;5378213;23;20060;-86
2021/08/24 09:13:48;;;;;;;1.10;1.10;;;;;;;30.10;23.58;100038.16;4882650;29;20092;-85
2021/08/24 09:16:31;;;;;;;1.00;1.00;;;;;;;28.81;23.61;100037.31;4887303;29;20051;-86
2021/08/24 09:19:17;;;;;;;1.10;1.10;;;;;;;28.94;23.98;100047.22;4916143;29;20049;-87
2021/08/24 09:21:47;;;;;;;1.00;1.00;;;;;;;27.97;24.88;100032.09;4882819;29;20045;-86
2021/08/24 09:24:28;;;;;;;1.10;1.10;;;;;;;27.74;25.93;100033.13;4887131;29;20051;-84
2021/08/24 09:27:17;;;;;;;0.20;0.20;;;;;;;25.76;28.73;100037.31;4886273;29;20561;-87
2021/08/24 09:29:57;;;;;;;0.20;0.20;;;;;;;26.88;28.00;100034.16;4993813;23;20124;31
2021/08/24 09:32:29;;;;;;;1.30;1.30;;;;;;;27.57;26.50;100034.00;5037457;24;20353;-85
2021/08/24 09:35:34;;;;;;;1.30;1.30;;;;;;;29.46;23.71;100035.47;5180757;24;20074;-87
2021/08/24 09:38:03;;;;;;;1.10;1.10;;;;;;;28.80;23.67;100032.88;5145798;23;20032;31
2021/08/24 09:40:45;;;;;;;1.20;1.20;;;;;;;30.78;22.60;100034.56;5040366;23;20063;-87
2021/08/24 09:49:41;;;;;;;0.10;0.10;;;;;;;24.75;28.29;100030.84;5673324;23;19914;-84
2021/08/24 09:55:23;;;;;;;0.10;0.10;;;;;;;23.82;30.39;100024.53;4864659;29;20078;-84
2021/08/24 09:58:01;;;;;;;0.10;0.10;;;;;;;23.93;31.58;100027.63;4844865;29;20065;-81
2021/08/24 10:01:05;;;;;;;0.10;0.10;;;;;;;23.05;32.75;100028.59;4858480;29;20068;-86
2021/08/24 10:03:43;;;;;;;0.10;0.10;;;;;;;22.80;33.41;100025.78;5210537;23;20160;-86
2021/08/24 10:06:31;;;;;;;0.10;0.10;;;;;;;22.99;32.49;100033.09;5100658;23;20028;31
2021/08/24 10:09:35;;;;;;;0.20;0.20;;;;;;;23.45;31.08;100022.75;5012889;23;20108;-86
2021/08/24 10:12:29;;;;;;;0.15;0.15;;;;;;;23.21;31.42;100033.56;4885462;29;20064;-82
2021/08/24 10:14:56;;;;;;;0.20;0.20;;;;;;;24.06;31.04;100027.47;4908559;29;20060;-86
2021/08/24 10:20:52;;;;;;;0.20;0.20;;;;;;;24.83;30.34;100032.41;5190618;23;20044;-87
2021/08/24 10:23:56;;;;;;;0.10;0.10;;;;;;;24.85;28.93;100021.97;5260372;23;20024;-85
2021/08/24 10:26:36;;;;;;;0.20;0.20;;;;;;;25.29;27.39;100033.66;5023938;23;20088;31
2021/08/24 10:29:12;;;;;;;0.20;0.20;;;;;;;25.13;27.98;100036.03;5338945;23;20056;-85
2021/08/24 10:35:27;;;;;;;1.17;1.17;;;;;;;27.36;25.89;100037.53;5681756;23;20024;31
2021/08/24 10:37:57;;;;;;;1.17;1.17;;;;;;;28.74;24.83;100036.69;4830058;29;20034;-87
2021/08/24 10:40:42;;;;;;;1.10;1.10;;;;;;;28.75;23.24;100033.66;5112794;23;20053;-86
2021/08/24 10:43:14;;;;;;;1.10;1.10;;;;;;;27.52;24.69;100013.63;5231231;23;20051;-85
2021/08/24 10:46:02;;;;;;;0.95;0.95;;;;;;;29.36;23.13;100033.41;5030179;23;20048;31
2021/08/24 10:48:34;;;;;;;0.90;0.90;;;;;;;30.99;21.64;100016.72;4865972;29;20064;-84
2021/08/24 10:51:18;;;;;;;0.90;0.90;;;;;;;31.88;19.86;100018.13;5086756;23;20032;31
2021/08/24 10:53:55;;;;;;;0.30;0.30;;;;;;;32.42;18.22;100023.00;5004167;23;20049;-88
2021/08/24 10:56:37;;;;;;;0.10;0.10;;;;;;;30.90;20.57;100022.03;4897196;29;20125;-88
2021/08/24 10:59:29;;;;;;;0.30;0.30;;;;;;;30.02;22.27;100021.91;5585729;23;20023;-87
2021/08/24 11:09:08;;;;;;;0.80;0.80;;;;;;;31.05;19.61;100020.38;4915927;29;20067;-86
2021/08/24 11:11:46;;;;;;;0.70;0.70;;;;;;;32.36;19.32;100001.75;5577414;24;20031;-88
2021/08/24 11:14:43;;;;;;;0.60;0.60;;;;;;;32.27;18.99;100008.22;5263914;23;20070;-86
2021/08/24 11:17:42;;;;;;;0.70;0.70;;;;;;;32.73;18.51;100010.81;4927441;29;20040;-85
2021/08/24 11:20:39;;;;;;;0.30;0.30;;;;;;;31.94;19.58;100000.22;4928266;29;20147;-85
2021/08/24 11:23:24;;;;;;;0.10;0.10;;;;;;;29.92;22.47;99991.22;4892391;29;20041;-85
2021/08/24 11:26:01;;;;;;;0.10;0.10;;;;;;;27.16;26.58;100002.75;4908517;29;20096;-86
2021/08/24 11:28:52;;;;;;;0.10;0.10;;;;;;;26.87;26.23;99995.56;4975068;23;20075;-86
2021/08/24 11:31:34;;;;;;;0.10;0.10;;;;;;;26.05;27.95;100004.19;5348600;23;20039;31
2021/08/24 11:34:09;;;;;;;0.20;0.20;;;;;;;25.78;28.70;99987.19;4885506;29;20057;-87
2021/08/24 11:36:48;;;;;;;0.20;0.20;;;;;;;26.24;29.26;99994.59;4878944;29;20053;-86
2021/08/24 11:39:30;;;;;;;0.20;0.20;;;;;;;26.29;28.03;99991.06;5230416;23;20057;-86
2021/08/24 11:42:14;;;;;;;0.20;0.20;;;;;;;26.54;27.09;99991.63;4926380;29;20056;-87
2021/08/24 11:44:51;;;;;;;0.30;0.30;;;;;;;27.02;26.43;99994.97;4936857;24;20097;-87
2021/08/24 11:47:49;;;;;;;0.50;0.50;;;;;;;27.63;26.08;99994.06;4911253;29;20052;-87
2021/08/24 11:50:55;;;;;;;0.20;0.20;;;;;;;28.53;24.35;99997.53;4892615;29;20088;-87
2021/08/24 11:53:54;;;;;;;0.20;0.20;;;;;;;27.72;25.31;99996.44;4868770;29;20468;-88
2021/08/24 11:56:33;;;;;;;0.20;0.20;;;;;;;26.61;27.21;99995.09;5133724;23;21373;-85
2021/08/24 11:59:03;;;;;;;0.13;0.13;;;;;;;25.24;28.59;99992.88;5066343;23;20069;-86
2021/08/24 12:01:33;;;;;;;0.10;0.10;;;;;;;23.96;30.32;99996.78;4885024;29;20102;-85
2021/08/24 12:04:03;;;;;;;0.20;0.20;;;;;;;24.53;30.64;99991.81;4894870;29;20068;-85
2021/08/24 12:06:36;;;;;;;0.20;0.20;;;;;;;24.74;29.86;99991.28;4901090;29;20041;-85
2021/08/24 12:09:03;;;;;;;0.15;0.15;;;;;;;24.87;29.37;99990.25;4912962;29;20060;-85
2021/08/24 12:11:46;;;;;;;0.20;0.20;;;;;;;25.31;28.64;99990.00;4894407;29;20037;-85
2021/08/24 12:14:33;;;;;;;0.20;0.20;;;;;;;25.75;28.53;99983.00;4896423;29;20186;-85
2021/08/24 12:17:13;;;;;;;0.20;0.20;;;;;;;25.94;28.30;99975.41;4880359;29;20033;-88
2021/08/24 12:19:57;;;;;;;0.20;0.20;;;;;;;25.84;28.12;99980.72;4892341;29;20056;-85
2021/08/24 12:22:58;;;;;;;0.20;0.20;;;;;;;26.04;28.24;99981.16;4874735;29;20063;-86
2021/08/24 12:25:44;;;;;;;0.10;0.10;;;;;;;25.76;29.04;99983.84;4871117;29;20041;-87
2021/08/24 12:28:23;;;;;;;0.20;0.20;;;;;;;25.13;29.39;99980.69;4901706;29;20073;-83
2021/08/24 12:31:00;;;;;;;0.20;0.20;;;;;;;24.77;29.98;99992.75;4956751;23;20052;-88